createdAt,value
2023-08-09T00:02:08.030Z,41.84
2023-08-09T00:04:56.740Z,41.86
2023-08-09T00:07:45.591Z,41.89
2023-08-09T00:10:35.044Z,42.16
2023-08-09T00:13:23.885Z,41.85
2023-08-09T00:16:12.795Z,41.79
2023-08-09T00:19:03.394Z,41.65
2023-08-09T00:21:52.327Z,42.17
2023-08-09T00:24:41.241Z,41.93
2023-08-09T00:27:30.507Z,41.87
2023-08-09T00:30:19.266Z,41.70
2023-08-09T00:33:08.391Z,41.80
2023-08-09T00:35:59.025Z,41.90
2023-08-09T00:38:47.871Z,41.94
2023-08-09T00:41:36.762Z,41.87
2023-08-09T00:44:25.615Z,41.83
2023-08-09T00:47:14.306Z,42.04
2023-08-09T00:50:03.836Z,42.19
2023-08-09T00:52:53.976Z,41.74
2023-08-09T00:55:42.833Z,41.74
2023-08-09T00:58:31.646Z,41.54
2023-08-09T01:01:20.431Z,41.50
2023-08-09T01:04:09.370Z,41.12
2023-08-09T01:07:05.229Z,41.50
2023-08-09T01:10:02.520Z,41.55
2023-08-09T01:12:55.247Z,41.67
2023-08-09T01:15:45.352Z,41.76
2023-08-09T01:18:35.982Z,41.73
2023-08-09T01:21:29.399Z,41.62
2023-08-09T01:24:20.028Z,41.93
2023-08-09T01:27:10.062Z,41.84
2023-08-09T01:29:58.996Z,41.98
2023-08-09T01:32:48.011Z,41.70
2023-08-09T01:35:43.497Z,41.38
2023-08-09T01:38:37.950Z,41.57
2023-08-09T01:41:28.599Z,41.69
2023-08-09T01:44:18.371Z,41.83
2023-08-09T01:47:08.795Z,41.66
2023-08-09T01:49:57.705Z,41.56
2023-08-09T01:52:46.431Z,41.84
2023-08-09T01:55:35.439Z,41.73
2023-08-09T01:58:25.864Z,41.60
2023-08-09T02:01:14.682Z,41.66
2023-08-09T02:04:04.348Z,41.67
2023-08-09T02:06:53.271Z,41.69
2023-08-09T02:09:42.194Z,41.85
2023-08-09T02:12:31.036Z,41.83
2023-08-09T02:15:23.251Z,41.42
2023-08-09T02:18:12.072Z,41.62
2023-08-09T02:21:03.308Z,41.59
2023-08-09T02:23:52.108Z,41.59
2023-08-09T02:26:41.214Z,41.54
2023-08-09T02:29:31.042Z,41.44
2023-08-09T02:32:21.412Z,41.49
2023-08-09T02:35:11.225Z,41.58
2023-08-09T02:37:59.952Z,41.33
2023-08-09T02:40:50.306Z,41.55
2023-08-09T02:43:39.298Z,41.37
2023-08-09T02:46:28.035Z,41.46
2023-08-09T02:49:18.152Z,41.53
2023-08-09T02:52:07.397Z,41.71
2023-08-09T02:54:56.259Z,41.81
2023-08-09T02:57:45.063Z,41.57
2023-08-09T03:00:34.626Z,41.84
2023-08-09T03:03:24.026Z,41.65
2023-08-09T03:06:14.141Z,41.88
2023-08-09T03:09:03.629Z,41.81
2023-08-09T03:11:52.510Z,41.67
2023-08-09T03:14:41.417Z,41.69
2023-08-09T03:17:30.341Z,41.82
2023-08-09T03:20:19.339Z,42.03
2023-08-09T03:23:10.719Z,41.88
2023-08-09T03:25:59.577Z,42.29
2023-08-09T03:28:48.307Z,41.90
2023-08-09T03:31:37.162Z,42.22
2023-08-09T03:34:25.905Z,41.81
2023-08-09T03:37:14.807Z,41.82
2023-08-09T03:40:10.564Z,41.86
2023-08-09T03:42:59.333Z,41.93
2023-08-09T03:45:48.279Z,42.55
2023-08-09T03:48:37.081Z,42.68
2023-08-09T03:51:25.947Z,42.06
2023-08-09T03:54:14.631Z,42.56
2023-08-09T03:57:05.054Z,42.30
2023-08-09T03:59:54.266Z,42.68
2023-08-09T04:02:43.134Z,42.91
2023-08-09T04:05:31.929Z,42.64
2023-08-09T04:08:22.637Z,42.88
2023-08-09T04:11:11.456Z,42.59
2023-08-09T04:14:01.746Z,42.87
2023-08-09T04:16:50.602Z,42.80
2023-08-09T04:19:39.766Z,42.78
2023-08-09T04:22:29.316Z,43.02
2023-08-09T04:25:19.427Z,42.78
2023-08-09T04:28:11.092Z,43.01
2023-08-09T04:31:04.439Z,43.02
2023-08-09T04:33:53.340Z,43.25
2023-08-09T04:36:42.277Z,43.13
2023-08-09T04:39:30.966Z,43.61
2023-08-09T04:42:19.888Z,43.28
2023-08-09T04:45:10.897Z,43.21
2023-08-09T04:48:02.581Z,43.71
2023-08-09T04:50:53.380Z,43.75
2023-08-09T04:53:43.720Z,43.13
2023-08-09T04:56:32.554Z,43.15
2023-08-09T04:59:21.205Z,43.53
2023-08-09T05:02:09.928Z,43.79
2023-08-09T05:04:59.943Z,43.96
2023-08-09T05:07:48.856Z,44.00
2023-08-09T05:10:38.038Z,44.05
2023-08-09T05:13:27.457Z,44.11
2023-08-09T05:16:16.405Z,43.88
2023-08-09T05:19:05.710Z,44.31
2023-08-09T05:21:56.010Z,44.22
2023-08-09T05:24:44.710Z,44.31
2023-08-09T05:27:33.672Z,44.05
2023-08-09T05:30:23.352Z,44.38
2023-08-09T05:33:12.083Z,44.17
2023-08-09T05:36:01.320Z,44.49
2023-08-09T05:38:51.747Z,44.59
2023-08-09T05:41:40.705Z,44.50
2023-08-09T05:44:29.937Z,44.32
2023-08-09T05:47:18.952Z,44.35
2023-08-09T05:50:09.162Z,44.74
2023-08-09T05:52:57.871Z,44.65
2023-08-09T05:55:48.005Z,44.50
2023-08-09T05:58:36.709Z,44.75
2023-08-09T06:01:25.472Z,44.53
2023-08-09T06:04:14.536Z,44.24
2023-08-09T06:07:03.607Z,44.59
2023-08-09T06:09:52.693Z,44.84
2023-08-09T06:12:42.984Z,44.53
2023-08-09T06:15:31.952Z,44.52
2023-08-09T06:18:20.721Z,44.50
2023-08-09T06:21:09.627Z,44.76
2023-08-09T06:23:58.406Z,44.70
2023-08-09T06:26:47.158Z,44.85
2023-08-09T06:29:37.288Z,44.77
2023-08-09T06:32:26.006Z,44.88
2023-08-09T06:35:15.385Z,44.71
2023-08-09T06:38:14.664Z,44.79
2023-08-09T06:41:04.349Z,44.99
2023-08-09T06:43:53.078Z,44.80
2023-08-09T06:46:44.290Z,44.86
2023-08-09T06:49:33.842Z,44.69
2023-08-09T06:52:22.911Z,44.69
2023-08-09T06:55:12.485Z,44.58
2023-08-09T06:58:01.154Z,44.66
2023-08-09T07:00:50.467Z,44.76
2023-08-09T07:03:40.662Z,44.80
2023-08-09T07:06:29.329Z,44.69
2023-08-09T07:09:19.478Z,44.36
2023-08-09T07:12:08.718Z,45.12
2023-08-09T07:14:57.462Z,44.82
2023-08-09T07:17:47.522Z,44.90
2023-08-09T07:20:40.067Z,45.16
2023-08-09T07:23:41.256Z,45.10
2023-08-09T07:26:41.769Z,45.16
2023-08-09T07:29:30.735Z,44.84
2023-08-09T07:32:19.489Z,45.59
2023-08-09T07:35:09.867Z,45.79
2023-08-09T07:37:59.968Z,45.30
2023-08-09T07:40:48.822Z,45.58
2023-08-09T07:43:37.441Z,45.50
2023-08-09T07:46:26.185Z,45.33
2023-08-09T07:49:14.859Z,45.31
2023-08-09T07:52:03.935Z,45.71
2023-08-09T07:54:54.249Z,45.60
2023-08-09T07:57:43.038Z,45.64
2023-08-09T08:00:35.249Z,45.64
2023-08-09T08:03:27.873Z,45.83
2023-08-09T08:06:18.867Z,45.95
2023-08-09T08:09:13.681Z,45.76
2023-08-09T08:12:13.440Z,45.83
2023-08-09T08:15:11.036Z,46.10
2023-08-09T08:17:59.834Z,45.77
2023-08-09T08:20:48.515Z,45.83
2023-08-09T08:23:38.038Z,45.25
2023-08-09T08:26:26.851Z,45.05
2023-08-09T08:29:17.141Z,44.94
2023-08-09T08:32:09.432Z,45.10
2023-08-09T08:34:58.304Z,45.60
2023-08-09T08:37:48.859Z,45.22
2023-08-09T08:40:41.123Z,45.02
2023-08-09T08:43:30.090Z,45.21
2023-08-09T08:46:22.949Z,45.22
2023-08-09T08:49:16.053Z,44.79
2023-08-09T08:52:08.841Z,44.75
2023-08-09T08:54:58.438Z,45.22
2023-08-09T08:57:48.455Z,44.81
2023-08-09T09:00:37.478Z,44.97
2023-08-09T09:03:27.652Z,44.94
2023-08-09T09:06:16.471Z,45.24
2023-08-09T09:09:12.448Z,45.03
2023-08-09T09:12:04.296Z,45.07
2023-08-09T09:14:54.034Z,45.03
2023-08-09T09:17:43.961Z,45.17
2023-08-09T09:20:35.065Z,44.79
2023-08-09T09:23:28.902Z,44.97
2023-08-09T09:26:19.219Z,44.70
2023-08-09T09:29:10.479Z,44.55
2023-08-09T09:32:02.183Z,44.64
2023-08-09T09:34:53.384Z,44.69
2023-08-09T09:37:43.694Z,45.12
2023-08-09T09:40:36.712Z,45.09
2023-08-09T09:43:26.057Z,44.70
2023-08-09T09:46:35.700Z,44.82
2023-08-09T09:49:26.111Z,45.05
2023-08-09T09:52:15.912Z,44.70
2023-08-09T09:55:08.445Z,44.79
2023-08-09T09:57:58.138Z,45.01
2023-08-09T10:00:50.181Z,44.50
2023-08-09T10:03:51.823Z,43.51
2023-08-09T10:06:44.308Z,43.69
2023-08-09T10:09:34.869Z,43.15
2023-08-09T10:12:27.738Z,43.13
2023-08-09T10:15:19.577Z,43.30
2023-08-09T10:18:14.641Z,43.07
2023-08-09T10:21:06.804Z,43.09
2023-08-09T10:24:07.395Z,42.96
2023-08-09T10:26:58.277Z,43.21
2023-08-09T10:29:59.827Z,43.62
2023-08-09T10:32:53.245Z,43.40
2023-08-09T10:35:50.946Z,43.38
2023-08-09T10:38:47.308Z,43.60
2023-08-09T10:41:38.050Z,43.70
2023-08-09T10:44:42.059Z,43.97
2023-08-09T10:47:33.694Z,44.35
2023-08-09T10:50:23.225Z,44.34
2023-08-09T10:53:12.783Z,44.06
2023-08-09T10:56:05.038Z,43.79
2023-08-09T10:58:54.940Z,43.91
2023-08-09T11:01:44.813Z,43.98
2023-08-09T11:04:35.240Z,43.62
2023-08-09T11:07:23.960Z,43.27
2023-08-09T11:10:14.319Z,43.39
2023-08-09T11:13:08.590Z,43.43
2023-08-09T11:15:57.311Z,43.63
2023-08-09T11:18:45.968Z,43.31
2023-08-09T11:21:42.674Z,43.02
2023-08-09T11:24:31.625Z,43.33
2023-08-09T11:27:20.598Z,43.35
2023-08-09T11:30:10.802Z,42.64
2023-08-09T11:33:01.128Z,42.61
2023-08-09T11:35:50.436Z,42.82
2023-08-09T11:38:42.588Z,42.87
2023-08-09T11:41:42.774Z,42.77
2023-08-09T11:44:33.612Z,43.10
2023-08-09T11:47:22.391Z,42.94
2023-08-09T11:50:13.810Z,42.77
2023-08-09T11:53:02.492Z,42.40
2023-08-09T11:55:52.600Z,42.27
2023-08-09T11:58:44.920Z,42.21
2023-08-09T12:01:38.553Z,41.82
2023-08-09T12:04:30.496Z,42.04
2023-08-09T12:07:19.721Z,41.56
2023-08-09T12:10:12.723Z,41.85
2023-08-09T12:13:03.617Z,41.78
2023-08-09T12:15:52.417Z,41.71
2023-08-09T12:18:41.223Z,41.68
2023-08-09T12:21:29.895Z,41.97
2023-08-09T12:24:18.713Z,41.17
2023-08-09T12:27:07.506Z,41.16
2023-08-09T12:29:58.210Z,41.60
2023-08-09T12:32:47.081Z,41.71
2023-08-09T12:35:35.777Z,40.90
2023-08-09T12:38:25.242Z,40.94
2023-08-09T12:41:15.354Z,41.12
2023-08-09T12:44:04.068Z,40.90
2023-08-09T12:46:55.164Z,41.14
2023-08-09T12:49:44.036Z,41.05
2023-08-09T12:52:32.858Z,41.25
2023-08-09T12:55:21.611Z,41.05
2023-08-09T12:58:10.885Z,39.96
2023-08-09T13:01:00.924Z,39.89
2023-08-09T13:03:51.429Z,40.39
2023-08-09T13:06:40.126Z,40.19
2023-08-09T13:09:29.832Z,40.28
2023-08-09T13:12:18.586Z,40.00
2023-08-09T13:15:09.282Z,40.02
2023-08-09T13:17:57.971Z,40.00
2023-08-09T13:20:48.553Z,40.32
2023-08-09T13:23:37.194Z,40.37
2023-08-09T13:26:27.184Z,39.39
2023-08-09T13:29:16.051Z,36.16
2023-08-09T13:32:04.847Z,34.06
2023-08-09T13:34:54.205Z,34.44
2023-08-09T13:37:44.357Z,34.29
2023-08-09T13:40:33.384Z,33.93
2023-08-09T13:43:22.106Z,33.68
2023-08-09T13:46:11.074Z,33.10
2023-08-09T13:49:02.184Z,33.20
2023-08-09T13:51:51.438Z,32.78
2023-08-09T13:54:41.765Z,33.61
2023-08-09T13:57:30.453Z,33.30
2023-08-09T14:00:19.587Z,33.61
2023-08-09T14:03:10.048Z,33.77
2023-08-09T14:05:59.027Z,33.75
2023-08-09T14:08:47.737Z,33.41
2023-08-09T14:11:37.930Z,33.23
2023-08-09T14:14:27.300Z,33.07
2023-08-09T14:17:16.057Z,32.75
2023-08-09T14:20:06.976Z,32.87
2023-08-09T14:22:55.713Z,32.75
2023-08-09T14:25:44.450Z,31.63
2023-08-09T14:28:34.770Z,31.95
2023-08-09T14:31:23.625Z,32.03
2023-08-09T14:34:12.448Z,32.25
2023-08-09T14:37:02.737Z,32.26
2023-08-09T14:39:51.452Z,31.88
2023-08-09T14:42:42.255Z,31.76
2023-08-09T14:45:33.912Z,32.17
2023-08-09T14:48:22.674Z,32.34
2023-08-09T14:51:11.459Z,31.58
2023-08-09T14:54:00.211Z,31.64
2023-08-09T14:56:49.226Z,31.44
2023-08-09T14:59:37.831Z,31.76
2023-08-09T15:02:27.949Z,32.54
2023-08-09T15:05:16.752Z,32.01
2023-08-09T15:08:07.535Z,32.34
2023-08-09T15:10:59.047Z,32.64
2023-08-09T15:13:47.781Z,32.66
2023-08-09T15:16:36.475Z,31.74
2023-08-09T15:19:26.868Z,31.63
2023-08-09T15:22:15.546Z,31.38
2023-08-09T15:25:18.901Z,31.11
2023-08-09T15:28:08.465Z,31.28
2023-08-09T15:30:58.102Z,31.53
2023-08-09T15:33:46.966Z,31.27
2023-08-09T15:36:37.034Z,31.58
2023-08-09T15:39:26.117Z,31.84
2023-08-09T15:42:18.277Z,32.09
2023-08-09T15:45:08.612Z,31.54
2023-08-09T15:47:57.435Z,31.52
2023-08-09T15:50:46.194Z,31.50
2023-08-09T15:53:36.465Z,31.26
2023-08-09T15:56:25.420Z,30.74
2023-08-09T15:59:15.241Z,30.75
2023-08-09T16:02:04.603Z,31.10
2023-08-09T16:04:53.329Z,31.32
2023-08-09T16:07:42.279Z,31.37
2023-08-09T16:10:32.568Z,31.38
2023-08-09T16:13:21.723Z,31.37
2023-08-09T16:16:20.324Z,31.17
2023-08-09T16:19:13.173Z,31.43
2023-08-09T16:22:01.925Z,31.42
2023-08-09T16:24:50.663Z,31.19
2023-08-09T16:27:41.246Z,31.13
2023-08-09T16:30:30.125Z,31.32
2023-08-09T16:33:18.744Z,31.23
2023-08-09T16:36:08.038Z,30.97
2023-08-09T16:38:56.750Z,30.75
2023-08-09T16:41:45.531Z,31.32
2023-08-09T16:44:35.723Z,31.24
2023-08-09T16:47:24.459Z,30.97
2023-08-09T16:50:13.422Z,31.23
2023-08-09T16:53:02.099Z,31.13
2023-08-09T16:55:50.758Z,31.25
2023-08-09T16:58:39.655Z,31.34
2023-08-09T17:01:29.775Z,31.16
2023-08-09T17:04:18.508Z,31.31
2023-08-09T17:07:07.974Z,31.37
2023-08-09T17:09:56.697Z,31.42
2023-08-09T17:12:45.387Z,31.41
2023-08-09T17:15:34.387Z,31.27
2023-08-09T17:18:24.491Z,31.23
2023-08-09T17:21:13.200Z,30.93
2023-08-09T17:24:02.113Z,31.29
2023-08-09T17:26:51.148Z,31.42
2023-08-09T17:29:39.860Z,31.67
2023-08-09T17:32:28.629Z,31.73
2023-08-09T17:35:18.976Z,31.98
2023-08-09T17:38:07.722Z,32.11
2023-08-09T17:40:57.299Z,32.59
2023-08-09T17:43:45.923Z,33.19
2023-08-09T17:46:34.737Z,34.00
2023-08-09T17:49:23.480Z,34.20
2023-08-09T17:52:13.545Z,33.97
2023-08-09T17:55:02.269Z,33.75
2023-08-09T17:57:51.895Z,33.59
2023-08-09T18:00:41.882Z,34.18
2023-08-09T18:03:30.568Z,35.93
2023-08-09T18:06:20.529Z,35.42
2023-08-09T18:09:11.638Z,36.48
2023-08-09T18:12:01.593Z,35.35
2023-08-09T18:14:50.261Z,34.59
2023-08-09T18:17:41.345Z,34.41
2023-08-09T18:20:29.991Z,34.58
2023-08-09T18:23:18.869Z,33.95
2023-08-09T18:26:08.861Z,33.91
2023-08-09T18:28:57.551Z,33.91
2023-08-09T18:31:46.288Z,33.83
2023-08-09T18:34:35.057Z,34.30
2023-08-09T18:37:23.769Z,34.07
2023-08-09T18:40:13.707Z,34.12
2023-08-09T18:43:04.370Z,34.76
2023-08-09T18:45:53.014Z,35.01
2023-08-09T18:48:41.692Z,34.96
2023-08-09T18:51:30.348Z,34.84
2023-08-09T18:54:19.168Z,35.15
2023-08-09T18:57:07.969Z,34.97
2023-08-09T18:59:58.160Z,35.06
2023-08-09T19:02:48.159Z,35.40
2023-08-09T19:05:37.108Z,35.31
2023-08-09T19:08:25.798Z,35.52
2023-08-09T19:11:14.505Z,35.39
2023-08-09T19:14:04.392Z,35.67
2023-08-09T19:16:54.393Z,35.73
2023-08-09T19:19:43.179Z,35.54
2023-08-09T19:22:31.848Z,35.70
2023-08-09T19:25:21.124Z,35.67
2023-08-09T19:28:10.045Z,35.54
2023-08-09T19:31:00.682Z,35.86
2023-08-09T19:33:50.727Z,35.88
2023-08-09T19:36:39.509Z,36.06
2023-08-09T19:39:30.617Z,36.06
2023-08-09T19:42:19.555Z,35.83
2023-08-09T19:45:09.817Z,36.20
2023-08-09T19:48:00.416Z,36.15
2023-08-09T19:50:50.850Z,36.17
2023-08-09T19:53:39.792Z,36.22
2023-08-09T19:56:28.604Z,36.39
2023-08-09T19:59:17.255Z,36.38
2023-08-09T20:02:07.161Z,36.26
2023-08-09T20:04:55.915Z,36.23
2023-08-09T20:07:46.643Z,36.26
2023-08-09T20:10:37.917Z,36.18
2023-08-09T20:13:26.708Z,36.38
2023-08-09T20:16:15.411Z,36.59
2023-08-09T20:19:04.235Z,36.29
2023-08-09T20:21:52.935Z,36.44
2023-08-09T20:24:44.884Z,36.51
2023-08-09T20:27:33.624Z,36.51
2023-08-09T20:30:22.325Z,36.85
2023-08-09T20:33:11.323Z,36.88
2023-08-09T20:35:59.973Z,36.97
2023-08-09T20:38:48.897Z,36.83
2023-08-09T20:41:38.950Z,37.01
2023-08-09T20:44:27.640Z,37.01
2023-08-09T20:47:16.321Z,37.31
2023-08-09T20:50:06.106Z,36.90
2023-08-09T20:52:54.945Z,37.19
2023-08-09T20:55:44.280Z,37.34
2023-08-09T20:58:34.400Z,36.85
2023-08-09T21:01:24.141Z,37.00
2023-08-09T21:04:12.846Z,37.12
2023-08-09T21:07:01.488Z,37.18
2023-08-09T21:09:50.223Z,37.14
2023-08-09T21:12:41.524Z,37.07
2023-08-09T21:15:31.816Z,37.00
2023-08-09T21:18:20.452Z,36.81
2023-08-09T21:21:13.744Z,36.81
2023-08-09T21:32:34.556Z,37.21
2023-08-09T21:35:23.493Z,37.19
2023-08-09T21:38:15.726Z,37.66
2023-08-09T21:41:04.477Z,37.98
2023-08-09T21:43:53.340Z,37.55
2023-08-09T21:46:42.086Z,37.46
2023-08-09T21:49:33.304Z,37.47
2023-08-09T21:52:22.143Z,37.33
2023-08-09T21:55:11.215Z,37.39
2023-08-09T21:57:59.911Z,37.80
2023-08-09T22:00:48.582Z,38.01
2023-08-09T22:03:37.521Z,37.63
2023-08-09T22:06:27.767Z,37.71
2023-08-09T22:09:16.508Z,37.96
2023-08-09T22:12:05.931Z,38.19
2023-08-09T22:14:54.841Z,38.19
2023-08-09T22:17:43.655Z,37.97
2023-08-09T22:20:32.459Z,37.87
2023-08-09T22:23:22.579Z,38.20
2023-08-09T22:26:11.330Z,38.76
2023-08-09T22:29:00.043Z,38.44
2023-08-09T22:31:48.845Z,38.25
2023-08-09T22:34:37.615Z,38.64
2023-08-09T22:37:26.495Z,38.71
2023-08-09T22:40:16.605Z,38.64
2023-08-09T22:43:05.609Z,38.45
2023-08-09T22:45:54.417Z,38.43
2023-08-09T22:48:43.338Z,38.42
2023-08-09T22:51:32.058Z,38.58
2023-08-09T22:54:20.792Z,38.52
2023-08-09T22:57:12.694Z,38.95
2023-08-09T23:00:01.586Z,38.70
2023-08-09T23:02:50.427Z,38.63
2023-08-09T23:05:39.456Z,38.89
2023-08-09T23:08:28.991Z,38.71
2023-08-09T23:11:18.264Z,39.19
2023-08-09T23:14:08.561Z,39.03
2023-08-09T23:16:57.671Z,38.80
2023-08-09T23:19:46.392Z,38.80
2023-08-09T23:22:35.199Z,39.28
2023-08-09T23:25:24.196Z,39.36
2023-08-09T23:28:12.876Z,39.29
2023-08-09T23:31:03.016Z,39.04
2023-08-09T23:33:51.680Z,39.04
2023-08-09T23:36:40.501Z,39.14
2023-08-09T23:39:29.209Z,38.93
2023-08-09T23:42:17.906Z,39.45
2023-08-09T23:45:07.641Z,39.38
2023-08-09T23:47:58.289Z,39.30
2023-08-09T23:50:47.073Z,39.00
2023-08-09T23:53:36.086Z,39.42
2023-08-09T23:56:24.911Z,38.74
2023-08-09T23:59:13.756Z,39.22
